Time;durP1;ratioP1;P1;durP2;ratioP2;P2;SDS_P1;SDS_P2;PMS_P1;PMS_P2;Temp;Humidity;BMP_temperature;BMP_pressure;BME280_temperature;BME280_humidity;BME280_pressure;Samples;Min_cycle;Max_cycle;Signal;HPM_P1;HPM_P2
2023/07/03 06:05:20;;;;;;;12.88;11.57;;;;;;;;;;6139586;22;20025;-88
2023/07/03 06:07:45;;;;;;;13.10;11.85;;;;;;;;;;6157861;23;20052;-90
2023/07/03 06:10:12;;;;;;;13.48;12.18;;;;;;;;;;6157850;23;20005;-90
2023/07/03 06:12:38;;;;;;;15.02;13.63;;;;;;;;;;6157436;23;20013;-89
2023/07/03 09:09:52;;;;;;;24.13;21.63;;;;;;;;;;6165184;23;20049;-85
2023/07/03 09:12:28;;;;;;;26.83;22.90;;;;;;;;;;6131822;23;20026;-84
2023/07/03 09:15:16;;;;;;;25.85;23.05;;;;;;;;;;6158420;23;20320;-87
2023/07/03 09:17:42;;;;;;;28.10;22.00;;;;;;;;;;6157744;23;20013;-87
2023/07/03 09:20:10;;;;;;;24.65;21.98;;;;;;;;;;6158204;23;20005;-87
2023/07/03 09:22:55;;;;;;;30.20;21.48;;;;;;;;;;6131877;23;20014;-86
2023/07/03 09:25:27;;;;;;;28.80;24.33;;;;;;;;;;6133963;23;20013;-88
2023/07/03 09:27:56;;;;;;;27.63;23.30;;;;;;;;;;6135785;23;20033;-94
2023/07/03 09:30:21;;;;;;;;;;;;;;;;;;6134684;23;20002;-85
2023/07/03 09:32:47;;;;;;;29.83;26.10;;;;;;;;;;6159726;23;19913;-89
2023/07/03 09:35:21;;;;;;;26.67;23.73;;;;;;;;;;6161607;23;20421;-91
2023/07/03 09:37:57;;;;;;;28.20;24.15;;;;;;;;;;6161961;23;20072;-92
2023/07/03 09:40:31;;;;;;;30.08;25.13;;;;;;;;;;6133853;23;20092;-92
2023/07/03 09:42:56;;;;;;;28.70;24.98;;;;;;;;;;6163950;23;20080;-92
2023/07/03 09:45:33;;;;;;;29.17;24.15;;;;;;;;;;6158585;23;20073;-90
2023/07/03 09:48:01;;;;;;;27.77;24.38;;;;;;;;;;6159294;23;20021;-91
2023/07/03 09:50:30;;;;;;;29.90;26.73;;;;;;;;;;6159294;23;20033;-89
2023/07/03 09:53:01;;;;;;;26.20;22.85;;;;;;;;;;6159968;23;20105;-89
2023/07/03 09:55:27;;;;;;;22.88;20.40;;;;;;;;;;6159615;23;20012;-92
2023/07/03 09:57:52;;;;;;;21.33;19.02;;;;;;;;;;6161386;23;20025;-93
2023/07/03 10:00:23;;;;;;;25.02;19.80;;;;;;;;;;6160142;23;20064;-91
2023/07/03 10:02:57;;;;;;;24.67;21.52;;;;;;;;;;6162466;23;20017;-92
2023/07/03 10:05:32;;;;;;;21.20;18.92;;;;;;;;;;6136498;23;20088;-96
2023/07/03 10:08:06;;;;;;;26.13;23.35;;;;;;;;;;6161200;23;20076;-93
2023/07/03 10:10:34;;;;;;;24.67;21.40;;;;;;;;;;6135215;23;20044;-93
2023/07/03 10:13:23;;;;;;;22.65;20.40;;;;;;;;;;6157601;23;20009;-93
2023/07/03 10:15:51;;;;;;;25.23;22.15;;;;;;;;;;6159101;23;20032;-93
2023/07/03 10:18:26;;;;;;;24.07;21.57;;;;;;;;;;6158598;23;20005;-90
2023/07/03 10:20:52;;;;;;;22.85;20.17;;;;;;;;;;6132277;23;20061;-90
2023/07/03 10:23:21;;;;;;;20.48;18.27;;;;;;;;;;6158277;23;20009;-91
2023/07/03 10:25:57;;;;;;;21.13;18.75;;;;;;;;;;6158439;23;20028;-87
2023/07/03 10:28:53;;;;;;;20.10;18.00;;;;;;;;;;6158032;23;20009;-92
2023/07/03 10:31:24;;;;;;;22.75;20.35;;;;;;;;;;6155892;23;20405;-91
2023/07/03 10:33:58;;;;;;;21.60;19.25;;;;;;;;;;6157829;23;20025;-88
2023/07/03 10:36:26;;;;;;;21.83;18.25;;;;;;;;;;6156218;23;20001;-88
2023/07/03 10:39:14;;;;;;;19.67;17.77;;;;;;;;;;6157691;23;20001;-88
2023/07/03 10:41:50;;;;;;;19.30;17.23;;;;;;;;;;6157899;23;19998;-88
2023/07/03 10:44:21;;;;;;;17.92;16.13;;;;;;;;;;6157944;23;20008;-88
2023/07/03 10:47:16;;;;;;;18.65;16.77;;;;;;;;;;6157641;23;20049;-84
2023/07/03 10:49:41;;;;;;;16.17;14.52;;;;;;;;;;6158215;23;20002;-84
2023/07/03 10:52:07;;;;;;;18.05;14.85;;;;;;;;;;6157707;23;20006;-85
2023/07/03 10:54:54;;;;;;;18.48;16.45;;;;;;;;;;6157512;23;20005;-85
2023/07/03 10:57:27;;;;;;;19.27;17.40;;;;;;;;;;6157115;23;20005;-85
2023/07/03 10:59:59;;;;;;;16.80;15.10;;;;;;;;;;6157452;23;20013;-86
2023/07/03 11:02:41;;;;;;;20.20;16.33;;;;;;;;;;6131167;23;20439;-87
2023/07/03 11:05:25;;;;;;;17.88;15.85;;;;;;;;;;6156975;23;20432;-85
2023/07/03 11:07:53;;;;;;;21.15;17.67;;;;;;;;;;6156935;23;20161;-85
2023/07/03 11:10:41;;;;;;;17.52;15.82;;;;;;;;;;6157116;23;20006;-86
2023/07/03 11:13:31;;;;;;;16.50;14.57;;;;;;;;;;6130904;23;20014;-85
2023/07/03 11:16:13;;;;;;;16.77;15.05;;;;;;;;;;6157070;23;20081;-85
2023/07/03 11:19:00;;;;;;;15.18;13.68;;;;;;;;;;6157049;23;20008;-85
2023/07/03 11:21:42;;;;;;;14.27;13.00;;;;;;;;;;6156948;23;20083;-85
2023/07/03 11:24:42;;;;;;;16.25;14.57;;;;;;;;;;6156716;23;20005;-85
2023/07/03 11:27:14;;;;;;;17.00;15.20;;;;;;;;;;6156859;23;20009;-86
2023/07/03 11:29:43;;;;;;;17.10;15.40;;;;;;;;;;6157137;23;20080;-86
2023/07/03 11:32:09;;;;;;;18.35;16.55;;;;;;;;;;6156898;23;20041;-84
2023/07/03 11:34:35;;;;;;;17.58;15.88;;;;;;;;;;6156856;23;20002;-85
2023/07/03 11:37:21;;;;;;;19.40;17.60;;;;;;;;;;6156861;23;20005;-84
2023/07/03 11:39:49;;;;;;;18.15;16.23;;;;;;;;;;6156916;23;20429;-84
2023/07/03 11:42:23;;;;;;;18.73;16.95;;;;;;;;;;6155283;23;20065;-87
2023/07/03 17:01:22;;;;;;;10.63;9.63;;;;;;;;;;6149258;23;20017;-93
2023/07/03 17:03:49;;;;;;;10.75;9.75;;;;;;;;;;6156951;23;20017;-91
2023/07/03 17:06:19;;;;;;;10.48;9.48;;;;;;;;;;6156782;23;20017;-91
2023/07/03 17:08:45;;;;;;;12.63;11.33;;;;;;;;;;6132205;23;20306;-92
2023/07/03 17:11:11;;;;;;;12.43;11.13;;;;;;;;;;6127911;23;20037;-93
2023/07/03 17:13:36;;;;;;;12.90;11.68;;;;;;;;;;6129718;23;20006;-92
2023/07/03 17:16:02;;;;;;;11.30;10.30;;;;;;;;;;6128895;23;20013;-95
2023/07/03 17:18:27;;;;;;;11.45;10.45;;;;;;;;;;6150157;23;20006;-89
2023/07/03 17:20:53;;;;;;;11.13;10.13;;;;;;;;;;6130646;23;20081;-95
2023/07/03 17:23:20;;;;;;;11.57;10.48;;;;;;;;;;6147199;23;20455;-95
2023/07/03 17:26:00;;;;;;;11.90;10.73;;;;;;;;;;6162691;23;20014;-89
2023/07/03 17:28:27;;;;;;;11.98;10.88;;;;;;;;;;6174183;23;20006;-91
2023/07/03 17:30:54;;;;;;;12.23;10.50;;;;;;;;;;6170628;23;20032;-94
2023/07/03 17:33:21;;;;;;;12.73;11.43;;;;;;;;;;6144098;23;20032;-90
2023/07/03 17:35:47;;;;;;;11.77;10.63;;;;;;;;;;6165699;23;20060;-96
2023/07/03 17:38:13;;;;;;;11.13;10.13;;;;;;;;;;6162660;23;20005;-90
2023/07/03 17:40:41;;;;;;;11.85;10.80;;;;;;;;;;6167911;23;20006;-95
2023/07/03 17:43:07;;;;;;;11.40;10.38;;;;;;;;;;6161817;23;20005;-95
2023/07/03 17:45:43;;;;;;;11.95;10.85;;;;;;;;;;6171488;23;20009;-88
2023/07/03 17:48:37;;;;;;;13.73;11.88;;;;;;;;;;6168711;22;20009;-89
2023/07/03 17:51:05;;;;;;;12.90;11.43;;;;;;;;;;6173430;23;20469;-89
2023/07/03 17:53:41;;;;;;;11.07;9.98;;;;;;;;;;6175762;23;20397;-95
2023/07/03 18:01:22;;;;;;;12.80;10.63;;;;;;;;;;6168230;22;20026;-87
2023/07/03 18:03:57;;;;;;;10.75;9.70;;;;;;;;;;6173047;23;20014;-93
2023/07/03 18:06:22;;;;;;;11.57;10.43;;;;;;;;;;6168567;23;20040;-90
2023/07/03 18:08:48;;;;;;;10.82;9.90;;;;;;;;;;6175766;23;20026;-90
2023/07/03 18:11:33;;;;;;;10.38;9.38;;;;;;;;;;6170802;23;20028;-93
2023/07/03 18:13:59;;;;;;;10.55;9.52;;;;;;;;;;6171690;23;20057;-96
2023/07/03 18:16:51;;;;;;;10.52;9.60;;;;;;;;;;6170443;22;20025;-89
2023/07/03 18:19:51;;;;;;;12.48;9.52;;;;;;;;;;6153040;23;20002;-88
2023/07/03 18:25:23;;;;;;;11.73;10.10;;;;;;;;;;6156380;22;19940;-93
2023/07/03 18:27:49;;;;;;;10.68;9.68;;;;;;;;;;6161386;23;20037;-94
2023/07/03 18:30:18;;;;;;;10.63;9.70;;;;;;;;;;6173149;23;20093;-89
2023/07/03 18:33:16;;;;;;;10.32;9.40;;;;;;;;;;6168890;22;20006;-94
2023/07/03 18:35:44;;;;;;;14.00;11.10;;;;;;;;;;6170315;23;20016;-95
2023/07/03 18:38:34;;;;;;;10.80;9.80;;;;;;;;;;6172397;23;20460;-93
2023/07/03 18:41:03;;;;;;;13.27;10.50;;;;;;;;;;6161377;23;20417;-93
2023/07/03 18:43:28;;;;;;;;;;;;;;;;;;6158802;23;20368;-93
2023/07/03 18:45:54;;;;;;;13.45;12.07;;;;;;;;;;6132048;23;19995;-92
2023/07/03 18:48:20;;;;;;;13.68;12.18;;;;;;;;;;6158474;23;20044;-93
2023/07/03 18:50:45;;;;;;;12.07;10.98;;;;;;;;;;6158011;23;20033;-91
2023/07/03 18:53:11;;;;;;;12.50;10.80;;;;;;;;;;6158029;23;20017;-92
2023/07/03 18:55:37;;;;;;;11.75;10.65;;;;;;;;;;6158063;23;20005;-93
2023/07/03 18:58:02;;;;;;;11.30;10.18;;;;;;;;;;6157683;23;20008;-94
2023/07/03 19:00:27;;;;;;;11.00;9.95;;;;;;;;;;6158022;23;20001;-95
2023/07/03 19:02:53;;;;;;;11.50;10.40;;;;;;;;;;6157733;23;20371;-92
2023/07/03 19:05:18;;;;;;;11.30;10.23;;;;;;;;;;6157720;23;20010;-91
2023/07/03 19:07:44;;;;;;;11.68;10.27;;;;;;;;;;6157590;23;20083;-89
2023/07/03 19:10:10;;;;;;;11.85;10.75;;;;;;;;;;6158259;23;20333;-96
2023/07/03 19:12:36;;;;;;;10.68;9.68;;;;;;;;;;6160078;23;20013;-92
2023/07/03 19:15:01;;;;;;;11.70;10.70;;;;;;;;;;6133241;23;20009;-94
2023/07/03 19:17:27;;;;;;;10.98;9.88;;;;;;;;;;6159844;23;20002;-94
2023/07/03 19:19:52;;;;;;;11.55;10.45;;;;;;;;;;6158611;23;20008;-89
2023/07/03 19:22:18;;;;;;;11.38;9.80;;;;;;;;;;6157882;23;20377;-88
2023/07/03 19:24:43;;;;;;;11.25;10.13;;;;;;;;;;6158164;23;20001;-94
2023/07/03 19:27:09;;;;;;;11.35;10.35;;;;;;;;;;6132105;23;20019;-91
2023/07/03 19:29:36;;;;;;;10.45;9.40;;;;;;;;;;6157747;23;20052;-93
2023/07/03 19:32:02;;;;;;;11.20;10.20;;;;;;;;;;6157801;23;20043;-93
2023/07/03 19:34:28;;;;;;;11.55;10.48;;;;;;;;;;6157345;23;20009;-92
2023/07/03 19:36:54;;;;;;;11.40;10.38;;;;;;;;;;6157695;23;20005;-90
2023/07/03 19:39:19;;;;;;;13.07;11.23;;;;;;;;;;6157856;23;20002;-95
2023/07/03 19:41:46;;;;;;;12.77;11.48;;;;;;;;;;6131746;23;20041;-93
2023/07/03 19:44:11;;;;;;;11.77;10.57;;;;;;;;;;6157607;23;20009;-95
2023/07/03 19:46:39;;;;;;;11.30;10.20;;;;;;;;;;6157594;23;20001;-92
2023/07/03 19:49:05;;;;;;;11.98;10.85;;;;;;;;;;6157566;23;20065;-95
2023/07/03 19:51:31;;;;;;;11.25;10.15;;;;;;;;;;6157905;23;20373;-95
2023/07/03 19:53:58;;;;;;;12.32;10.50;;;;;;;;;;6157652;23;20006;-91
2023/07/03 19:56:24;;;;;;;12.32;11.10;;;;;;;;;;6156844;23;20076;-85
2023/07/03 19:58:49;;;;;;;11.27;10.15;;;;;;;;;;6156443;23;20030;-85
2023/07/03 20:01:16;;;;;;;11.57;10.45;;;;;;;;;;6156533;23;20002;-85
2023/07/03 20:03:41;;;;;;;10.77;8.70;;;;;;;;;;6156232;23;20010;-85
2023/07/03 20:06:17;;;;;;;7.53;6.78;;;;;;;;;;6156444;23;20005;-85
2023/07/03 20:08:43;;;;;;;6.13;5.53;;;;;;;;;;6156575;23;20056;-84
2023/07/03 20:11:09;;;;;;;4.97;4.57;;;;;;;;;;6156473;23;20002;-85
2023/07/03 20:13:34;;;;;;;4.45;3.60;;;;;;;;;;6130284;23;20370;-86
2023/07/03 20:16:03;;;;;;;4.28;3.00;;;;;;;;;;6156304;23;20002;-86
2023/07/03 20:18:29;;;;;;;6.22;3.00;;;;;;;;;;6156439;23;20028;-85
2023/07/03 20:20:55;;;;;;;3.75;3.30;;;;;;;;;;6156322;23;20425;-85
2023/07/03 20:23:20;;;;;;;5.45;3.13;;;;;;;;;;6156421;23;20077;-85
2023/07/03 20:25:56;;;;;;;4.25;3.00;;;;;;;;;;6156430;23;20006;-85
2023/07/03 20:28:23;;;;;;;5.38;3.42;;;;;;;;;;6156287;23;20013;-85
2023/07/03 20:30:49;;;;;;;3.30;3.00;;;;;;;;;;6156236;23;20329;-84
2023/07/03 20:33:15;;;;;;;4.38;2.70;;;;;;;;;;6156172;23;20022;-85
2023/07/03 20:35:41;;;;;;;4.88;2.95;;;;;;;;;;6156479;23;20002;-86
2023/07/03 20:38:06;;;;;;;3.10;2.53;;;;;;;;;;6156068;23;20088;-85
2023/07/03 20:40:32;;;;;;;3.78;2.83;;;;;;;;;;6156271;23;20088;-85
2023/07/03 20:43:01;;;;;;;3.97;3.00;;;;;;;;;;6130262;23;20053;-86
2023/07/03 20:45:27;;;;;;;4.90;2.33;;;;;;;;;;6156264;23;20002;-86
2023/07/03 20:47:56;;;;;;;3.05;2.72;;;;;;;;;;6155946;23;20006;-86
2023/07/03 20:50:26;;;;;;;4.63;2.80;;;;;;;;;;6156421;23;20009;-85
2023/07/03 20:52:59;;;;;;;4.13;2.05;;;;;;;;;;6129994;23;20020;-85
2023/07/03 20:55:35;;;;;;;4.88;2.28;;;;;;;;;;6158374;23;20032;-84
2023/07/03 20:58:02;;;;;;;6.03;3.03;;;;;;;;;;6159155;23;20002;-85
2023/07/03 21:00:28;;;;;;;9.15;4.32;;;;;;;;;;6159699;23;20056;-84
2023/07/03 21:02:53;;;;;;;8.18;3.70;;;;;;;;;;6159519;23;20006;-84
2023/07/03 21:05:19;;;;;;;6.28;3.80;;;;;;;;;;6159693;23;20001;-85
2023/07/03 21:07:44;;;;;;;8.07;3.97;;;;;;;;;;6159438;23;20008;-85
2023/07/03 21:10:10;;;;;;;11.25;3.80;;;;;;;;;;6159425;23;20028;-84
2023/07/03 21:12:36;;;;;;;16.63;4.68;;;;;;;;;;6132994;23;20388;-85
2023/07/03 21:15:01;;;;;;;13.18;5.13;;;;;;;;;;6159966;23;20005;-85
2023/07/03 21:17:27;;;;;;;11.18;4.93;;;;;;;;;;6159446;23;20417;-85
2023/07/03 21:19:52;;;;;;;11.85;5.03;;;;;;;;;;6159403;23;20045;-84
2023/07/03 21:22:19;;;;;;;6.97;3.65;;;;;;;;;;6159494;23;20006;-85
2023/07/03 21:24:45;;;;;;;7.57;3.30;;;;;;;;;;6133138;23;20001;-85
2023/07/03 21:27:10;;;;;;;9.93;3.22;;;;;;;;;;6159294;23;20084;-85
2023/07/03 21:29:36;;;;;;;8.77;3.67;;;;;;;;;;6159729;23;20068;-85
2023/07/03 21:32:02;;;;;;;5.05;2.83;;;;;;;;;;6159362;23;20395;-85
2023/07/03 21:34:27;;;;;;;4.47;3.00;;;;;;;;;;6159210;23;20044;-85
2023/07/03 21:36:52;;;;;;;7.65;3.30;;;;;;;;;;6159272;23;20360;-85
2023/07/03 21:39:18;;;;;;;4.75;3.20;;;;;;;;;;6159239;23;20005;-85
2023/07/03 21:41:45;;;;;;;11.75;3.42;;;;;;;;;;6159369;23;20016;-84
2023/07/03 21:44:13;;;;;;;3.88;3.20;;;;;;;;;;6159440;23;20068;-85
2023/07/03 21:46:39;;;;;;;5.30;3.03;;;;;;;;;;6159158;23;20029;-85
2023/07/03 21:49:05;;;;;;;8.05;3.00;;;;;;;;;;6132957;23;20005;-85
2023/07/03 21:51:30;;;;;;;4.32;2.60;;;;;;;;;;6159241;23;20005;-84
2023/07/03 21:53:57;;;;;;;4.20;2.80;;;;;;;;;;6159053;23;20410;-85
2023/07/03 21:56:28;;;;;;;4.13;2.60;;;;;;;;;;6159464;23;20001;-85
2023/07/03 21:58:56;;;;;;;3.58;2.45;;;;;;;;;;6158992;23;20006;-84
2023/07/03 22:01:32;;;;;;;4.43;2.90;;;;;;;;;;6159206;23;20016;-85
2023/07/03 22:03:58;;;;;;;7.88;3.15;;;;;;;;;;6133382;23;20329;-88
